Kamikawa Maru — JG5687 — position and weather

sailwx.info

Track history (hours):
 
Tides and Currents Weather Stations Pressure Air Temp Water Temp Dewpoint Dewpoint Depression Visibility Wind Speed Wind Dir Waves Ship Positions

Kamikawa Maru

Last reported at 2016-Sep-25 04:33 UTC. Time now 2016-Sep-25 08:55 UTC.
Position N 35°26' E 139°45'.

Length 162 m; draft 6.8 m.

Type: Cargo ship. MMSI: 431101012.

Date/timePositionNaut miles runAvg speedWind from/ knotsBaromVisibWave heightAir tempDewpointWater temp
2016-Sep-25 04:33N 35°26' E 139°45'12 3.0
2016-Sep-25 00:24N 35°38' E 139°46'12 6.4
2016-Sep-24 22:33N 35°27' E 139°49'1211.9
2016-Sep-24 21:33N 35°15' E 139°47'2412.0
2016-Sep-24 19:33N 34°52' E 139°57'1716.8
2016-Sep-24 18:33N 35°01' E 140°15'1717.2
2016-Sep-24 17:33N 35°11' E 140°32'1818.6
2016-Sep-24 16:33N 35°26' E 140°45'  
2016-Sep-20 14:33N 35°09' E 140°29'1817.7
2016-Sep-20 13:32N 34°59' E 140°11'3210.6
2016-Sep-20 10:34N 35°21' E 139°42'17 8.4
2016-Sep-20 08:30N 35°38' E 139°46'0 0.0
2016-Sep-20 07:30N 35°38' E 139°46'0 0.1
2016-Sep-20 06:33N 35°38' E 139°46'0 0.0
2016-Sep-20 02:21N 35°38' E 139°46'0 0.0
2016-Sep-19 23:33N 35°38' E 139°46'42 1.1
2016-Sep-18 09:18N 34°58' E 139°29'42 6.3
2016-Sep-18 02:31N 35°38' E 139°46'0 0.0
2016-Sep-18 01:31N 35°38' E 139°46'0 0.0
2016-Sep-18 00:28N 35°38' E 139°46'14 7.2
2016-Sep-17 22:34N 35°24' E 139°46'1211.7
2016-Sep-17 21:33N 35°12' E 139°47'1616.2
2016-Sep-17 20:34N 34°57' E 139°42'2015.5
2016-Sep-17 19:16N 34°58' E 140°07'  
Track history (hours):
 
Tides and Currents Weather Stations Pressure Air Temp Water Temp Dewpoint Dewpoint Depression Visibility Wind Speed Wind Dir Waves Ship Positions

Kamikawa Maru

Last reported at 2016-Sep-25 04:33 UTC. Time now 2016-Sep-25 08:55 UTC.
Position N 35°26' E 139°45'.

Length 162 m; draft 6.8 m.

Type: Cargo ship. MMSI: 431101012.

Date/timePositionNaut miles runAvg speedWind from/ knotsBaromVisibWave heightAir tempDewpointWater temp
2016-Sep-25 04:33N 35°26' E 139°45'12 3.0
2016-Sep-25 00:24N 35°38' E 139°46'12 6.4
2016-Sep-24 22:33N 35°27' E 139°49'1211.9
2016-Sep-24 21:33N 35°15' E 139°47'2412.0
2016-Sep-24 19:33N 34°52' E 139°57'1716.8
2016-Sep-24 18:33N 35°01' E 140°15'1717.2
2016-Sep-24 17:33N 35°11' E 140°32'1818.6
2016-Sep-24 16:33N 35°26' E 140°45'  
2016-Sep-20 14:33N 35°09' E 140°29'1817.7
2016-Sep-20 13:32N 34°59' E 140°11'3210.6
2016-Sep-20 10:34N 35°21' E 139°42'17 8.4
2016-Sep-20 08:30N 35°38' E 139°46'0 0.0
2016-Sep-20 07:30N 35°38' E 139°46'0 0.1
2016-Sep-20 06:33N 35°38' E 139°46'0 0.0
2016-Sep-20 02:21N 35°38' E 139°46'0 0.0
2016-Sep-19 23:33N 35°38' E 139°46'42 1.1
2016-Sep-18 09:18N 34°58' E 139°29'42 6.3
2016-Sep-18 02:31N 35°38' E 139°46'0 0.0
2016-Sep-18 01:31N 35°38' E 139°46'0 0.0
2016-Sep-18 00:28N 35°38' E 139°46'14 7.2
2016-Sep-17 22:34N 35°24' E 139°46'1211.7
2016-Sep-17 21:33N 35°12' E 139°47'1616.2
2016-Sep-17 20:34N 34°57' E 139°42'2015.5
2016-Sep-17 19:16N 34°58' E 140°07'  

Dump ship's entire track history